FNUE

Luena Airport

Luena, Angola
TAF FNUE 161100Z 1612/1624 11010KT CAVOK
Issued Valid From Valid To
Jul-16 @ 11:00 UTC
(9 hours ago)
Jul-16 @ 12:00 UTC
(8 hours ago)
Jul-17 @ 00:00 UTC
(in 4 hours)
Jul-16 @ 12:00 to Jul-17 @ 00:00
TAF FNUE 161100Z 1612/1624 11010KT CAVOK
Wind Visibility Clouds Conditions
110° at 10 knots 10,000+ meters
  • No significant clouds
TAF FNUE 161100Z 1612/1624 11010KT CAVOK
Issued Jul-16 @ 11:00 UTC
(9 hours ago)
Valid From Jul-16 @ 12:00 UTC
(8 hours ago)
Valid To Jul-17 @ 00:00 UTC
(in 4 hours)
Jul-16 @ 12:00 - Jul-17 @ 00:00
Wind Visibility
110° at 10 knots 10,000+ meters
Clouds
  • No significant clouds
Conditions